Time;durP1;ratioP1;P1;durP2;ratioP2;P2;SDS_P1;SDS_P2;PMS_P1;PMS_P2;Temp;Humidity;BMP_temperature;BMP_pressure;BME280_temperature;BME280_humidity;BME280_pressure;Samples;Min_cycle;Max_cycle;Signal;HPM_P1;HPM_P2
2022/08/11 00:01:45;;;;;;;7.32;2.20;;;25.00;79.60;;;;;;5065171;28;20037;-71
2022/08/11 00:04:12;;;;;;;4.25;1.52;;;24.90;80.30;;;;;;5069300;28;20386;-70
2022/08/11 00:06:39;;;;;;;2.85;1.58;;;24.90;79.90;;;;;;5068972;28;20032;-70
2022/08/11 00:09:11;;;;;;;4.15;1.95;;;25.00;79.40;;;;;;5063133;28;20060;-71
2022/08/11 00:11:44;;;;;;;3.75;1.60;;;25.00;79.00;;;;;;5069574;28;20051;-71
2022/08/11 00:14:32;;;;;;;4.65;1.92;;;25.00;79.10;;;;;;5060998;28;20386;-70
2022/08/11 00:17:01;;;;;;;3.33;1.77;;;25.00;79.10;;;;;;5069996;28;20111;-71
2022/08/11 00:19:36;;;;;;;5.72;1.48;;;24.90;79.50;;;;;;5054537;28;20638;-71
2022/08/11 00:22:04;;;;;;;5.82;2.03;;;24.90;79.80;;;;;;5058851;28;20037;-71
2022/08/11 00:24:38;;;;;;;3.67;1.63;;;24.80;80.40;;;;;;5063214;28;20044;-71
2022/08/11 00:27:05;;;;;;;3.60;1.60;;;24.80;79.80;;;;;;5054676;28;20075;-71
2022/08/11 00:29:31;;;;;;;3.13;1.73;;;24.80;80.00;;;;;;5065616;28;20029;-70
2022/08/11 00:32:00;;;;;;;9.07;1.73;;;24.90;80.30;;;;;;5057220;28;20032;-71
2022/08/11 00:34:28;;;;;;;4.90;1.60;;;24.80;80.30;;;;;;5067084;28;20056;-71
2022/08/11 00:37:06;;;;;;;5.28;1.50;;;24.80;79.70;;;;;;5055418;28;20040;-71
2022/08/11 00:39:45;;;;;;;5.38;2.20;;;24.80;79.60;;;;;;5064732;28;20099;-70
2022/08/11 00:42:13;;;;;;;5.97;1.55;;;24.90;79.10;;;;;;5067932;28;20104;-71
2022/08/11 00:45:07;;;;;;;8.38;1.85;;;24.90;80.00;;;;;;5062228;28;20083;-70
2022/08/11 00:47:35;;;;;;;3.92;1.52;;;24.70;81.00;;;;;;5068684;28;20579;-70
2022/08/11 00:50:29;;;;;;;4.75;1.90;;;24.60;81.40;;;;;;5071820;28;20037;-71
2022/08/11 00:53:25;;;;;;;3.53;1.30;;;24.50;81.50;;;;;;5072808;28;20028;-71
2022/08/11 00:56:09;;;;;;;6.63;1.77;;;24.50;82.40;;;;;;5052733;28;20596;-70
2022/08/11 00:59:22;;;;;;;4.03;1.80;;;24.30;84.70;;;;;;5070045;28;20031;-71
2022/08/11 01:02:06;;;;;;;4.18;1.73;;;24.20;89.00;;;;;;5062471;28;20132;-71
2022/08/11 01:04:56;;;;;;;4.90;1.60;;;24.00;90.00;;;;;;5070107;28;20028;-71
2022/08/11 01:07:39;;;;;;;4.43;2.17;;;23.40;89.20;;;;;;5071947;28;20515;-71
2022/08/11 01:10:10;;;;;;;3.08;1.70;;;23.30;90.10;;;;;;5068242;28;20510;-70
2022/08/11 01:12:43;;;;;;;4.95;1.95;;;23.30;91.60;;;;;;5059327;28;20039;-71
2022/08/11 01:15:32;;;;;;;3.70;1.58;;;23.10;92.30;;;;;;5058878;28;20097;-70
2022/08/11 01:19:09;;;;;;;3.03;1.70;;;22.80;92.10;;;;;;5073222;28;20028;-70
2022/08/11 01:22:01;;;;;;;3.80;2.10;;;22.60;92.40;;;;;;4987216;28;20041;-73
2022/08/11 01:24:44;;;;;;;4.95;1.90;;;22.10;93.10;;;;;;4999421;28;20083;-73
2022/08/11 01:27:57;;;;;;;3.78;2.15;;;21.80;94.20;;;;;;5065546;28;20044;-71
2022/08/11 01:30:41;;;;;;;5.25;1.45;;;21.90;94.60;;;;;;5056664;28;20132;-73
2022/08/11 01:33:16;;;;;;;5.28;1.90;;;21.60;94.40;;;;;;5068961;28;20428;-73
2022/08/11 01:35:53;;;;;;;3.30;1.67;;;22.40;92.80;;;;;;5064673;28;20078;-71
2022/08/11 01:39:16;;;;;;;4.18;1.70;;;22.30;93.60;;;;;;5060177;28;20064;-71
2022/08/11 01:44:37;;;;;;;5.05;1.90;;;21.80;94.10;;;;;;4981924;28;20137;-71
2022/08/11 01:50:16;;;;;;;5.20;1.67;;;21.50;94.40;;;;;;5065773;28;20047;-70
2022/08/11 01:53:06;;;;;;;6.68;2.03;;;21.50;94.50;;;;;;5068888;28;20368;-72
2022/08/11 01:56:02;;;;;;;3.42;1.80;;;21.40;94.50;;;;;;5060420;28;20505;-71
2022/08/11 01:58:57;;;;;;;4.90;2.22;;;21.50;94.10;;;;;;5057140;28;20032;-73
2022/08/11 02:01:30;;;;;;;3.58;1.80;;;21.50;93.90;;;;;;5052521;28;20057;-73
2022/08/11 02:04:17;;;;;;;6.43;2.53;;;21.20;94.40;;;;;;5056157;28;21185;-73
2022/08/11 02:07:01;;;;;;;7.00;2.42;;;21.30;94.50;;;;;;5052317;28;20115;-71
2022/08/11 02:10:01;;;;;;;3.72;1.83;;;21.50;93.60;;;;;;5058853;28;20047;-73
2022/08/11 02:12:45;;;;;;;6.35;2.15;;;21.50;93.80;;;;;;5057052;28;20417;-73
2022/08/11 02:15:14;;;;;;;3.78;1.92;;;21.40;93.90;;;;;;5060921;28;20082;-72
2022/08/11 02:18:14;;;;;;;3.75;1.98;;;21.30;93.90;;;;;;5053680;28;20037;-73
2022/08/11 02:24:04;;;;;;;4.15;1.85;;;21.20;94.10;;;;;;5068571;28;20442;-72
2022/08/11 02:26:40;;;;;;;3.85;2.00;;;21.20;93.70;;;;;;5066330;28;20029;-72
2022/08/11 02:29:16;;;;;;;4.70;1.90;;;21.20;93.70;;;;;;5068028;28;20028;-72
2022/08/11 02:35:02;;;;;;;7.93;2.00;;;21.10;94.00;;;;;;5060349;28;20043;-72
2022/08/11 02:37:43;;;;;;;4.55;2.17;;;21.00;93.70;;;;;;5067755;28;20459;-72
2022/08/11 02:40:21;;;;;;;3.45;1.70;;;21.00;93.60;;;;;;5055856;28;20086;-72
2022/08/11 02:43:19;;;;;;;4.10;1.75;;;20.90;93.70;;;;;;5063154;28;20054;-73
2022/08/11 02:46:23;;;;;;;5.57;1.80;;;20.80;94.00;;;;;;5062993;28;20036;-73
2022/08/11 02:52:13;;;;;;;6.00;1.92;;;20.70;93.70;;;;;;5057149;28;20055;-73
2022/08/11 02:55:11;;;;;;;5.78;1.90;;;20.70;93.80;;;;;;5067532;28;20025;-72
2022/08/11 02:57:40;;;;;;;4.82;1.90;;;20.60;94.20;;;;;;5030906;28;20122;-72
2022/08/11 03:00:12;;;;;;;4.32;1.90;;;20.50;94.20;;;;;;5063578;28;20076;-70
2022/08/11 03:02:56;;;;;;;5.80;2.15;;;20.30;94.50;;;;;;5062047;28;20038;-70
2022/08/11 03:05:43;;;;;;;5.20;1.92;;;20.50;94.30;;;;;;5062111;28;20025;-69
2022/08/11 03:08:21;;;;;;;3.35;2.00;;;20.40;94.10;;;;;;5062701;28;20036;-69
2022/08/11 03:17:20;;;;;;;3.40;1.63;;;20.20;93.50;;;;;;5060599;28;20674;-69
2022/08/11 03:20:06;;;;;;;5.10;1.80;;;20.30;93.30;;;;;;5044581;28;20063;-69
2022/08/11 03:22:41;;;;;;;3.70;1.83;;;20.40;93.20;;;;;;5056127;28;20112;-69
2022/08/11 03:25:45;;;;;;;5.10;1.60;;;20.30;93.00;;;;;;5067781;28;20029;-69
2022/08/11 03:28:17;;;;;;;3.35;1.65;;;20.30;93.10;;;;;;5055546;28;20120;-69
2022/08/11 03:30:53;;;;;;;4.80;1.90;;;20.20;93.30;;;;;;5063002;28;20036;-69
2022/08/11 03:36:40;;;;;;;4.47;1.75;;;20.00;93.90;;;;;;5055015;28;20070;-69
2022/08/11 03:39:28;;;;;;;3.80;1.60;;;19.90;93.70;;;;;;5045262;28;20371;-69
2022/08/11 03:42:31;;;;;;;3.40;1.80;;;19.90;93.90;;;;;;5065610;28;20039;-69
2022/08/11 03:45:32;;;;;;;4.88;1.85;;;19.80;93.90;;;;;;5065309;28;20370;-69
2022/08/11 03:48:16;;;;;;;2.63;1.38;;;19.90;93.50;;;;;;5046520;28;20253;-69
2022/08/11 03:50:54;;;;;;;4.07;1.50;;;19.80;93.20;;;;;;5060466;28;20032;-69
2022/08/11 03:53:43;;;;;;;5.35;1.60;;;19.80;93.30;;;;;;5061392;28;20036;-71
2022/08/11 03:56:50;;;;;;;3.05;1.45;;;19.70;93.10;;;;;;5052010;28;20032;-72
2022/08/11 03:59:43;;;;;;;4.63;1.88;;;19.70;93.00;;;;;;5016489;28;20092;-72
2022/08/11 04:02:39;;;;;;;5.55;1.73;;;19.80;92.90;;;;;;5050693;28;20029;-72
2022/08/11 04:05:19;;;;;;;2.97;1.48;;;19.70;93.20;;;;;;5058403;28;20047;-72
2022/08/11 04:08:03;;;;;;;2.13;1.20;;;19.80;92.70;;;;;;5056929;28;20111;-72
2022/08/11 04:10:32;;;;;;;5.22;1.60;;;19.60;93.10;;;;;;5064681;28;20032;-72
2022/08/11 04:13:15;;;;;;;3.85;1.50;;;19.60;93.00;;;;;;5052897;28;20017;-72
2022/08/11 04:16:20;;;;;;;4.50;1.70;;;19.60;93.10;;;;;;5054827;28;20033;-72
2022/08/11 04:19:19;;;;;;;3.78;1.70;;;19.50;93.00;;;;;;5066718;28;20132;-72
2022/08/11 04:22:19;;;;;;;5.60;1.80;;;19.50;93.10;;;;;;5064728;28;20044;-72
2022/08/11 04:25:01;;;;;;;2.67;1.42;;;19.40;93.50;;;;;;5063949;28;20028;-72
2022/08/11 04:27:51;;;;;;;6.22;1.63;;;19.30;93.70;;;;;;5053232;28;20102;-72
2022/08/11 04:30:41;;;;;;;6.10;1.55;;;19.20;93.90;;;;;;5047541;28;20609;-72
2022/08/11 04:33:35;;;;;;;5.10;1.60;;;19.00;94.40;;;;;;5056852;28;20033;-72
2022/08/11 04:39:27;;;;;;;3.97;1.63;;;19.20;93.90;;;;;;5061251;28;20046;-72
2022/08/11 04:45:15;;;;;;;4.97;1.60;;;19.10;93.70;;;;;;5050345;28;20075;-72
2022/08/11 05:02:20;;;;;;;4.80;1.48;;;19.60;93.40;;;;;;5057299;28;20963;-72
2022/08/11 05:08:16;;;;;;;4.20;1.35;;;19.70;93.10;;;;;;5054769;28;20043;-72
2022/08/11 05:11:00;;;;;;;2.78;1.30;;;19.80;92.90;;;;;;5056492;28;20044;-72
2022/08/11 05:34:55;;;;;;;10.88;1.83;;;20.60;93.20;;;;;;5052402;28;20166;-72
2022/08/11 05:37:32;;;;;;;4.80;1.63;;;20.70;93.10;;;;;;5050196;28;20413;-72
2022/08/11 05:57:06;;;;;;;3.63;1.60;;;21.00;93.30;;;;;;5057119;28;20072;-72
2022/08/11 05:59:32;;;;;;;7.75;1.83;;;21.10;93.10;;;;;;5056637;28;20037;-71
2022/08/11 06:02:03;;;;;;;6.75;2.08;;;21.20;93.70;;;;;;5069659;28;20116;-73
2022/08/11 06:04:29;;;;;;;2.70;1.60;;;21.30;93.80;;;;;;5056396;28;20159;-72
2022/08/11 06:06:57;;;;;;;7.05;2.22;;;21.30;94.50;;;;;;5056360;28;20047;-72
2022/08/11 06:09:33;;;;;;;4.95;1.83;;;21.30;94.90;;;;;;5054649;28;20033;-72
2022/08/11 06:12:07;;;;;;;3.45;1.95;;;21.30;95.50;;;;;;5058004;28;20108;-72
2022/08/11 06:14:34;;;;;;;;;;;21.40;95.50;;;;;;5060899;28;20399;-72
2022/08/11 06:17:02;;;;;;;4.55;2.05;;;21.40;95.20;;;;;;5054227;28;19928;-72
2022/08/11 06:19:38;;;;;;;4.25;1.88;;;21.50;95.60;;;;;;5054543;28;20114;-72
2022/08/11 06:22:06;;;;;;;4.55;2.30;;;21.60;95.60;;;;;;5063797;28;20036;-72
2022/08/11 06:24:34;;;;;;;4.32;2.30;;;21.60;95.30;;;;;;5052334;28;20837;-72
2022/08/11 06:27:02;;;;;;;4.97;2.17;;;21.70;95.60;;;;;;5065950;28;20577;-72
2022/08/11 06:29:28;;;;;;;4.88;2.08;;;21.70;96.60;;;;;;5059022;28;20083;-72
2022/08/11 06:32:01;;;;;;;8.18;2.65;;;21.80;96.70;;;;;;5049859;28;20045;-72
2022/08/11 06:34:31;;;;;;;4.38;2.25;;;21.80;97.20;;;;;;5053207;28;20036;-72
2022/08/11 06:37:34;;;;;;;7.30;2.50;;;21.80;97.30;;;;;;5056423;28;20032;-72
2022/08/11 06:40:28;;;;;;;5.82;2.58;;;21.80;96.90;;;;;;5054966;28;20076;-72
2022/08/11 06:43:30;;;;;;;4.50;2.38;;;22.00;97.10;;;;;;5047760;28;20025;-72
2022/08/11 06:46:01;;;;;;;6.32;2.55;;;22.10;96.90;;;;;;5006915;28;20609;-72
2022/08/11 06:48:31;;;;;;;5.38;2.60;;;22.20;96.70;;;;;;5053090;28;20024;-72
2022/08/11 06:51:12;;;;;;;4.85;2.50;;;22.00;96.20;;;;;;5055418;28;20048;-71
2022/08/11 06:53:59;;;;;;;4.00;2.15;;;22.00;96.00;;;;;;5051687;28;20124;-72
2022/08/11 07:02:24;;;;;;;5.35;2.50;;;22.20;96.10;;;;;;5050433;28;20046;-72
2022/08/11 07:05:02;;;;;;;5.97;2.40;;;22.20;96.30;;;;;;5054864;28;20450;-72
2022/08/11 07:16:27;;;;;;;3.63;2.10;;;22.50;96.50;;;;;;5043988;28;20047;-72
2022/08/11 07:30:48;;;;;;;5.05;2.63;;;23.00;95.80;;;;;;5049617;28;20508;-72
2022/08/11 07:33:25;;;;;;;3.85;2.50;;;23.50;95.50;;;;;;5059054;28;20373;-72
2022/08/11 07:35:54;;;;;;;9.38;2.20;;;23.70;95.60;;;;;;5048431;28;20044;-72
2022/08/11 07:38:42;;;;;;;5.80;2.13;;;23.70;95.30;;;;;;5046427;28;20065;-73
2022/08/11 07:41:13;;;;;;;4.88;2.58;;;23.40;94.60;;;;;;5044635;28;20068;-72
2022/08/11 07:43:40;;;;;;;8.63;3.42;;;24.30;94.10;;;;;;5048664;28;20102;-72
2022/08/11 07:54:25;;;;;;;7.15;2.33;;;24.40;94.50;;;;;;5047708;28;20459;-73
2022/08/11 07:56:51;;;;;;;4.63;2.78;;;24.10;95.00;;;;;;5051498;28;20029;-72
2022/08/11 08:18:37;;;;;;;5.63;2.42;;;24.20;93.60;;;;;;5057136;28;20035;-73
2022/08/11 08:21:11;;;;;;;6.47;2.38;;;24.60;93.40;;;;;;5062003;28;20651;-73
2022/08/11 08:23:39;;;;;;;4.15;2.25;;;24.70;93.10;;;;;;5049413;28;20025;-73
2022/08/11 08:26:57;;;;;;;5.82;2.47;;;24.80;93.10;;;;;;5047453;28;20033;-73
2022/08/11 08:30:46;;;;;;;5.63;2.53;;;24.60;92.90;;;;;;5050047;28;20082;-73
2022/08/11 08:31:41;;;;;;;4.72;2.60;;;24.70;93.00;;;;;;5055615;28;20072;-72
2022/08/11 08:34:08;;;;;;;6.55;2.65;;;24.60;93.00;;;;;;5049293;28;20071;-73
2022/08/11 08:36:35;;;;;;;7.28;2.40;;;24.80;93.40;;;;;;5050870;28;20040;-73
2022/08/11 08:39:01;;;;;;;8.75;2.45;;;24.90;93.30;;;;;;5056935;28;20452;-73
2022/08/11 08:41:31;;;;;;;3.97;2.60;;;24.90;93.10;;;;;;5045939;28;20033;-73
2022/08/11 08:44:01;;;;;;;5.63;2.22;;;25.10;92.60;;;;;;5052587;28;20017;-72
2022/08/11 08:46:35;;;;;;;4.32;2.40;;;25.20;92.40;;;;;;5052278;28;20024;-72
2022/08/11 08:49:02;;;;;;;5.10;2.60;;;25.30;92.30;;;;;;5037457;28;20473;-72
2022/08/11 08:51:34;;;;;;;5.63;2.67;;;25.40;92.10;;;;;;5056097;28;20052;-72
2022/08/11 08:54:09;;;;;;;18.40;4.53;;;25.40;91.30;;;;;;5059638;28;20028;-72
2022/08/11 08:56:38;;;;;;;5.45;2.30;;;25.50;91.50;;;;;;5055277;28;20460;-72
2022/08/11 08:59:05;;;;;;;4.88;2.08;;;25.30;90.90;;;;;;5057969;28;20031;-72
2022/08/11 09:01:37;;;;;;;3.83;2.30;;;25.10;91.10;;;;;;5060945;28;20864;-72
2022/08/11 09:04:08;;;;;;;4.75;2.38;;;25.30;91.50;;;;;;5056604;28;20042;-73
2022/08/11 09:06:38;;;;;;;3.72;2.08;;;25.50;92.10;;;;;;5059282;28;20094;-73
2022/08/11 09:09:07;;;;;;;6.60;1.95;;;25.50;90.80;;;;;;5061387;28;20045;-73
2022/08/11 09:11:50;;;;;;;4.93;2.03;;;25.60;90.20;;;;;;5052744;28;20745;-73
2022/08/11 09:17:18;;;;;;;6.60;2.05;;;25.60;91.70;;;;;;5053937;28;20036;-73
2022/08/11 09:19:45;;;;;;;3.17;1.77;;;25.60;90.70;;;;;;5051795;28;20028;-73
2022/08/11 09:27:42;;;;;;;6.00;2.33;;;25.90;90.20;;;;;;5047753;28;20598;-73
2022/08/11 09:30:10;;;;;;;3.80;1.90;;;25.90;89.80;;;;;;5049934;28;20033;-72
2022/08/11 09:32:39;;;;;;;5.80;1.77;;;26.00;90.20;;;;;;5053096;28;20025;-72
2022/08/11 09:35:05;;;;;;;3.75;1.90;;;26.10;90.80;;;;;;5059195;28;20059;-72
2022/08/11 09:40:29;;;;;;;3.30;1.70;;;26.60;89.60;;;;;;5057520;28;20054;-72
2022/08/11 09:45:50;;;;;;;4.47;1.52;;;26.70;87.90;;;;;;5053715;28;20056;-72
2022/08/11 09:48:21;;;;;;;3.42;2.03;;;26.80;88.60;;;;;;5049252;28;20992;-73
2022/08/11 09:50:53;;;;;;;3.88;1.85;;;27.20;88.00;;;;;;5057447;28;20060;-73
2022/08/11 09:53:21;;;;;;;5.53;2.10;;;27.70;88.30;;;;;;5040234;28;20691;-73
2022/08/11 09:55:49;;;;;;;5.43;2.10;;;27.50;88.40;;;;;;5060282;28;20556;-72
2022/08/11 09:58:16;;;;;;;6.93;1.90;;;27.50;90.50;;;;;;5051798;28;20029;-74
2022/08/11 10:00:44;;;;;;;5.40;2.20;;;27.40;87.70;;;;;;5053051;28;20386;-74
2022/08/11 10:03:26;;;;;;;5.85;2.20;;;27.30;89.90;;;;;;5052081;28;20566;-73
2022/08/11 10:08:43;;;;;;;3.88;1.70;;;26.80;88.00;;;;;;5053458;28;20079;-72
2022/08/11 10:11:11;;;;;;;3.55;1.52;;;27.20;86.30;;;;;;5044141;28;20127;-72
2022/08/11 10:16:28;;;;;;;4.40;1.70;;;27.20;83.70;;;;;;5052560;28;20171;-72
2022/08/11 10:18:55;;;;;;;6.43;1.92;;;27.30;84.50;;;;;;5054663;28;20025;-73
2022/08/11 10:21:40;;;;;;;9.38;1.98;;;27.70;85.60;;;;;;5049761;28;20128;-73
2022/08/11 10:26:53;;;;;;;4.65;1.80;;;28.10;84.70;;;;;;5054060;28;20066;-72
2022/08/11 10:35:12;;;;;;;5.72;1.85;;;28.10;84.40;;;;;;5063065;28;20098;-72
2022/08/11 10:37:39;;;;;;;4.97;1.65;;;28.10;81.30;;;;;;5057185;28;20108;-72
2022/08/11 10:40:07;;;;;;;2.97;1.55;;;27.90;79.40;;;;;;5060352;28;20037;-72
2022/08/11 10:48:05;;;;;;;3.63;1.98;;;28.30;81.20;;;;;;5057869;28;20055;-72
2022/08/11 10:58:50;;;;;;;5.15;1.70;;;28.70;80.90;;;;;;5051141;28;20102;-72
2022/08/11 11:01:34;;;;;;;4.13;1.30;;;28.40;80.70;;;;;;5057477;28;20051;-72
2022/08/11 11:04:02;;;;;;;4.63;1.50;;;28.50;84.90;;;;;;5056785;28;20494;-72
2022/08/11 11:06:45;;;;;;;3.08;1.90;;;28.80;84.90;;;;;;5059709;28;20032;-72
2022/08/11 11:09:13;;;;;;;3.35;1.58;;;28.80;83.30;;;;;;5056726;28;20047;-72
2022/08/11 11:17:55;;;;;;;2.58;1.38;;;29.00;81.10;;;;;;5044483;28;20083;-73
2022/08/11 11:20:40;;;;;;;3.10;1.65;;;28.70;81.60;;;;;;5044167;28;20036;-74
2022/08/11 11:23:11;;;;;;;4.00;1.45;;;28.90;78.60;;;;;;5045725;28;20025;-74
2022/08/11 11:26:15;;;;;;;2.72;1.33;;;29.00;78.80;;;;;;5046237;28;20128;-73
2022/08/11 11:29:19;;;;;;;4.65;1.75;;;29.10;78.80;;;;;;5045196;28;20029;-73
2022/08/11 11:32:07;;;;;;;2.97;1.38;;;29.00;79.20;;;;;;5044579;28;20042;-73
2022/08/11 11:34:36;;;;;;;5.68;1.63;;;29.10;77.70;;;;;;5045947;28;20031;-74
2022/08/11 11:37:02;;;;;;;2.53;1.48;;;29.30;78.20;;;;;;5047343;28;20033;-73
2022/08/11 11:39:31;;;;;;;6.75;1.58;;;29.50;79.50;;;;;;5044210;28;20029;-73
2022/08/11 11:42:02;;;;;;;3.90;1.60;;;29.70;78.30;;;;;;5046509;28;20029;-73
2022/08/11 11:44:28;;;;;;;4.70;1.58;;;29.20;77.20;;;;;;5046406;28;20132;-73
2022/08/11 11:46:54;;;;;;;2.78;1.33;;;29.30;78.50;;;;;;5046252;28;20120;-74
2022/08/11 11:49:23;;;;;;;3.78;1.67;;;29.40;77.90;;;;;;5049435;28;20028;-74
2022/08/11 11:51:51;;;;;;;3.67;1.63;;;29.70;77.70;;;;;;5031749;28;20044;-74
2022/08/11 11:54:32;;;;;;;3.33;1.50;;;30.00;77.70;;;;;;5052144;28;20033;-74
2022/08/11 12:01:14;;;;;;;2.00;1.33;;;29.90;77.90;;;;;;5052666;28;20024;-74
2022/08/11 12:02:35;;;;;;;3.13;1.40;;;30.00;78.30;;;;;;5048960;28;20637;-74
2022/08/11 12:05:01;;;;;;;2.38;1.40;;;30.10;79.80;;;;;;5043168;28;20120;-74
2022/08/11 12:10:13;;;;;;;4.05;1.90;;;30.30;78.40;;;;;;5067310;28;20117;-74
2022/08/11 12:15:23;;;;;;;3.08;1.88;;;30.00;77.90;;;;;;5055996;28;20082;-74
2022/08/11 12:17:50;;;;;;;4.55;2.05;;;30.00;77.30;;;;;;5051998;28;20055;-74
2022/08/11 12:20:20;;;;;;;5.00;1.83;;;30.00;77.20;;;;;;5053044;28;20040;-74
2022/08/11 12:28:17;;;;;;;3.85;1.60;;;30.30;77.40;;;;;;5059784;28;20089;-73
2022/08/11 12:30:46;;;;;;;3.95;1.50;;;30.10;76.20;;;;;;5066137;28;20099;-72
2022/08/11 12:33:13;;;;;;;4.30;1.73;;;30.40;77.70;;;;;;5059390;28;20115;-72
2022/08/11 12:35:39;;;;;;;3.22;1.80;;;30.40;76.50;;;;;;5065939;28;20120;-74
2022/08/11 12:38:06;;;;;;;3.30;1.60;;;30.40;75.20;;;;;;5057204;28;20029;-72
2022/08/11 12:46:30;;;;;;;5.75;1.67;;;30.70;75.90;;;;;;5064643;28;20036;-73
2022/08/11 12:51:57;;;;;;;2.60;1.48;;;30.60;75.70;;;;;;5068705;28;20043;-73
2022/08/11 12:54:33;;;;;;;4.07;1.63;;;30.60;77.80;;;;;;5059256;28;20120;-73
2022/08/11 13:05:18;;;;;;;2.40;1.48;;;31.00;77.20;;;;;;5063592;28;20035;-73
2022/08/11 13:07:45;;;;;;;2.53;1.60;;;31.20;75.90;;;;;;5066767;28;20045;-73
2022/08/11 13:12:46;;;;;;;5.72;1.77;;;31.20;76.30;;;;;;5060380;28;20044;-74
2022/08/11 13:13:02;;;;;;;3.10;1.67;;;31.10;75.40;;;;;;5059312;28;20068;-73
2022/08/11 13:15:28;;;;;;;5.40;2.30;;;31.20;75.70;;;;;;5040779;28;20127;-73
2022/08/11 13:17:54;;;;;;;5.53;1.80;;;31.10;74.80;;;;;;5063880;28;20036;-73
2022/08/11 13:20:24;;;;;;;3.15;1.52;;;31.10;75.10;;;;;;5063508;28;20067;-73
2022/08/11 13:22:54;;;;;;;4.03;1.75;;;31.10;76.00;;;;;;5067669;28;20467;-74
2022/08/11 13:25:23;;;;;;;4.57;2.08;;;31.20;75.00;;;;;;5063492;28;20035;-74
2022/08/11 13:27:52;;;;;;;5.68;1.70;;;31.00;74.50;;;;;;5067468;28;20378;-74
2022/08/11 13:33:06;;;;;;;5.50;1.77;;;31.10;73.80;;;;;;5066468;28;20047;-73
2022/08/11 13:35:33;;;;;;;3.50;1.83;;;31.00;75.10;;;;;;5069167;28;20043;-73
2022/08/11 13:38:02;;;;;;;3.88;1.95;;;31.20;77.80;;;;;;5068905;28;20036;-72
2022/08/11 13:40:29;;;;;;;3.60;2.10;;;31.30;76.50;;;;;;5059627;28;20914;-72
2022/08/11 13:42:57;;;;;;;7.50;2.35;;;31.30;75.10;;;;;;5067931;28;20056;-73
2022/08/11 13:45:24;;;;;;;5.10;2.10;;;31.10;74.40;;;;;;5065051;28;20040;-72
2022/08/11 13:47:54;;;;;;;3.65;1.92;;;31.20;74.60;;;;;;5063398;28;20521;-74
2022/08/11 13:50:20;;;;;;;3.70;1.90;;;31.10;76.10;;;;;;5051282;28;20029;-74
2022/08/11 13:52:48;;;;;;;3.75;1.42;;;31.30;75.80;;;;;;5060421;28;20086;-73
2022/08/11 13:55:20;;;;;;;6.15;2.00;;;31.40;74.80;;;;;;5052448;28;20033;-73
2022/08/11 13:57:53;;;;;;;4.10;1.90;;;31.50;77.70;;;;;;5066815;28;20052;-73
2022/08/11 14:00:19;;;;;;;3.33;1.65;;;31.60;74.90;;;;;;5066435;28;20640;-73
2022/08/11 14:02:48;;;;;;;4.05;2.13;;;31.50;73.90;;;;;;5067454;28;20067;-73
2022/08/11 14:05:16;;;;;;;3.42;1.98;;;31.50;74.30;;;;;;5067178;28;20036;-74
2022/08/11 14:07:50;;;;;;;5.50;2.45;;;31.40;75.20;;;;;;5064561;28;20028;-73
2022/08/11 14:10:21;;;;;;;3.13;1.60;;;31.60;74.10;;;;;;5067615;28;20048;-73
2022/08/11 14:15:46;;;;;;;3.53;1.55;;;31.60;76.00;;;;;;5067412;28;20042;-73
2022/08/11 14:18:15;;;;;;;3.67;1.60;;;31.60;74.20;;;;;;5067578;28;20502;-73
2022/08/11 14:23:40;;;;;;;5.68;2.10;;;31.70;76.70;;;;;;5068818;28;20093;-73
2022/08/11 14:26:27;;;;;;;7.07;2.00;;;31.60;74.10;;;;;;5057959;28;20024;-74
2022/08/11 14:29:01;;;;;;;4.13;2.00;;;31.70;75.40;;;;;;5065581;28;20040;-74
2022/08/11 14:31:28;;;;;;;3.28;1.85;;;31.70;75.00;;;;;;5065853;28;20394;-73
2022/08/11 14:33:55;;;;;;;2.78;1.58;;;31.80;75.40;;;;;;5068152;28;20032;-73
2022/08/11 14:36:27;;;;;;;3.22;1.90;;;31.90;74.90;;;;;;5066291;28;20714;-73
2022/08/11 14:38:54;;;;;;;3.53;1.60;;;31.80;73.40;;;;;;5068430;28;20037;-74
2022/08/11 14:47:04;;;;;;;3.40;1.70;;;31.60;74.50;;;;;;5059786;28;20039;-74
2022/08/11 14:49:34;;;;;;;3.85;1.83;;;31.30;73.20;;;;;;5065803;28;20047;-73
2022/08/11 14:52:02;;;;;;;4.55;1.73;;;31.50;73.50;;;;;;5064958;28;20067;-74
2022/08/11 14:57:16;;;;;;;2.47;1.40;;;31.80;74.50;;;;;;5067416;28;20043;-74
2022/08/11 14:59:43;;;;;;;2.58;1.40;;;31.60;73.10;;;;;;5065660;28;20032;-74
2022/08/11 15:04:57;;;;;;;3.33;2.00;;;31.40;73.40;;;;;;5066536;28;20082;-74
2022/08/11 15:07:28;;;;;;;3.40;1.70;;;31.40;73.10;;;;;;5064894;28;20059;-73
2022/08/11 15:09:57;;;;;;;2.70;1.52;;;31.30;73.40;;;;;;5065674;28;20041;-73
2022/08/11 15:12:23;;;;;;;4.90;1.67;;;31.30;73.90;;;;;;5059443;28;20044;-74
2022/08/11 15:17:35;;;;;;;5.55;1.60;;;31.20;73.50;;;;;;5056736;28;20056;-73
2022/08/11 15:25:35;;;;;;;2.72;1.73;;;31.20;73.00;;;;;;5064218;28;20085;-74
2022/08/11 15:45:46;;;;;;;6.07;2.40;;;31.30;73.20;;;;;;5057064;28;20043;-73
2022/08/11 15:48:08;;;;;;;8.60;2.20;;;30.90;73.00;;;;;;5053439;28;20125;-75
2022/08/11 15:50:36;;;;;;;;;;;30.90;73.60;;;;;;5055981;28;20445;-73
2022/08/11 15:53:06;;;;;;;3.10;1.70;;;30.80;73.00;;;;;;5050807;28;19916;-74
2022/08/11 15:55:36;;;;;;;7.07;1.70;;;30.80;73.20;;;;;;5047355;28;20103;-74
2022/08/11 16:04:11;;;;;;;5.25;2.00;;;30.80;72.90;;;;;;5064721;28;20084;-73
2022/08/11 16:07:00;;;;;;;7.10;2.10;;;30.90;73.50;;;;;;5064322;28;20064;-74
2022/08/11 16:09:34;;;;;;;3.70;1.80;;;30.70;73.00;;;;;;5061405;28;20137;-73
2022/08/11 16:12:02;;;;;;;;;;;30.60;73.10;;;;;;5062440;28;20067;-74
2022/08/11 16:17:20;;;;;;;5.13;1.58;;;30.40;73.50;;;;;;5062145;28;20048;-72
2022/08/11 16:19:48;;;;;;;6.45;2.03;;;30.30;74.00;;;;;;5049962;28;20033;-74
2022/08/11 16:22:34;;;;;;;6.18;1.42;;;30.30;73.70;;;;;;5071380;28;20032;-73
2022/08/11 16:25:01;;;;;;;6.90;1.85;;;30.10;73.90;;;;;;5071217;28;20033;-73
2022/08/11 16:27:32;;;;;;;2.60;1.38;;;30.10;73.80;;;;;;5070954;28;20099;-73
2022/08/11 16:30:00;;;;;;;3.33;1.73;;;29.90;73.60;;;;;;5057874;28;20514;-73
2022/08/11 16:32:27;;;;;;;3.63;1.20;;;29.80;74.40;;;;;;5064302;28;20433;-73
2022/08/11 16:40:52;;;;;;;4.72;1.80;;;29.60;74.20;;;;;;5058110;28;20044;-73
2022/08/11 16:48:53;;;;;;;4.75;1.58;;;29.40;73.60;;;;;;5070591;28;20036;-73
2022/08/11 16:51:20;;;;;;;4.57;1.77;;;29.30;73.30;;;;;;5069863;28;20053;-73
2022/08/11 16:53:47;;;;;;;5.65;1.42;;;29.20;73.70;;;;;;5059223;28;20048;-73
2022/08/11 16:56:20;;;;;;;3.13;1.52;;;29.00;74.10;;;;;;5050210;28;20051;-73
2022/08/11 17:01:37;;;;;;;4.03;1.52;;;29.00;73.70;;;;;;5070688;28;20511;-73
2022/08/11 17:18:38;;;;;;;9.57;1.70;;;28.60;74.70;;;;;;5061067;28;20048;-73
2022/08/11 17:21:02;;;;;;;2.75;1.42;;;28.60;75.40;;;;;;5049449;28;20037;-73
2022/08/11 17:23:45;;;;;;;3.65;1.58;;;28.50;75.20;;;;;;5067180;28;20056;-73
2022/08/11 17:26:14;;;;;;;8.75;1.50;;;28.40;75.40;;;;;;5069264;28;20055;-73
2022/08/11 17:28:41;;;;;;;4.22;1.58;;;28.30;75.70;;;;;;5069944;28;20033;-73
2022/08/11 17:36:43;;;;;;;3.00;1.60;;;28.20;75.10;;;;;;5049718;28;20094;-73
2022/08/11 17:39:11;;;;;;;5.13;1.70;;;28.10;75.00;;;;;;5049659;28;20039;-73
2022/08/11 17:49:55;;;;;;;8.93;2.58;;;27.90;76.20;;;;;;5063349;28;20040;-73
2022/08/11 18:00:38;;;;;;;6.90;2.38;;;27.70;75.30;;;;;;5069177;28;20052;-73
2022/08/11 18:05:50;;;;;;;8.10;1.83;;;27.60;75.70;;;;;;5069111;28;20062;-73
